createdAt,value
2017-09-16T00:00:43.079Z,89.0
2017-09-16T00:01:44.446Z,89.1
2017-09-16T00:03:26.784Z,88.8
2017-09-16T00:04:28.153Z,88.9
2017-09-16T00:05:29.522Z,89.0
2017-09-16T00:06:30.889Z,88.6
2017-09-16T00:07:32.257Z,89.0
2017-09-16T00:08:33.627Z,89.0
2017-09-16T00:09:34.996Z,88.6
2017-09-16T00:10:36.363Z,89.0
2017-09-16T00:11:37.732Z,88.9
2017-09-16T00:12:39.097Z,88.8
2017-09-16T00:13:40.468Z,89.0
2017-09-16T00:14:41.836Z,88.9
2017-09-16T00:15:43.206Z,89.1
2017-09-16T00:16:44.573Z,88.9
2017-09-16T00:17:45.954Z,88.8
2017-09-16T00:18:47.326Z,88.5
2017-09-16T00:19:48.689Z,89.1
2017-09-16T00:20:50.060Z,89.1
2017-09-16T00:21:51.428Z,88.7
2017-09-16T00:22:52.797Z,88.8
2017-09-16T00:23:54.164Z,88.5
2017-09-16T00:24:55.561Z,88.4
2017-09-16T00:25:56.899Z,88.8
2017-09-16T00:26:58.267Z,88.9
2017-09-16T00:27:59.636Z,89.5
2017-09-16T00:29:01.005Z,88.8
2017-09-16T00:30:02.371Z,89.1
2017-09-16T00:31:03.750Z,88.9
2017-09-16T00:32:05.116Z,89.1
2017-09-16T00:33:06.482Z,89.0
2017-09-16T00:34:07.850Z,89.1
2017-09-16T00:35:50.210Z,88.8
2017-09-16T00:36:51.583Z,89.2
2017-09-16T00:37:52.950Z,88.5
2017-09-16T00:38:54.317Z,88.8
2017-09-16T00:39:55.684Z,89.1
2017-09-16T00:40:57.050Z,89.0
2017-09-16T00:41:58.432Z,89.0
2017-09-16T00:42:59.794Z,89.0
2017-09-16T00:44:01.162Z,89.0
2017-09-16T00:45:02.529Z,88.8
2017-09-16T00:46:03.896Z,88.6
2017-09-16T00:47:05.266Z,88.7
2017-09-16T00:48:06.634Z,88.5
2017-09-16T00:49:08.002Z,89.2
2017-09-16T00:50:09.373Z,89.6
2017-09-16T00:51:10.745Z,89.6
2017-09-16T00:52:12.105Z,89.6
2017-09-16T00:53:13.473Z,89.6
2017-09-16T00:54:14.839Z,88.9
2017-09-16T00:55:16.208Z,89.6
2017-09-16T00:56:17.579Z,89.6
2017-09-16T00:57:18.950Z,89.6
2017-09-16T00:58:20.316Z,89.6
2017-09-16T00:59:21.688Z,89.8
2017-09-16T01:00:23.057Z,89.4
2017-09-16T01:01:24.428Z,89.2
2017-09-16T01:02:25.792Z,89.9
2017-09-16T01:03:27.167Z,89.2
2017-09-16T01:04:28.536Z,89.4
2017-09-16T01:05:29.905Z,89.6
2017-09-16T01:06:31.301Z,90.0
2017-09-16T01:07:32.639Z,90.7
2017-09-16T01:08:34.006Z,90.4
2017-09-16T01:09:35.373Z,90.1
2017-09-16T01:10:36.743Z,90.3
2017-09-16T01:11:38.124Z,90.5
2017-09-16T01:12:39.486Z,90.6
2017-09-16T01:13:40.845Z,89.7
2017-09-16T01:14:42.223Z,90.2
2017-09-16T01:15:43.652Z,90.3
2017-09-16T01:16:45.017Z,90.6
2017-09-16T01:17:46.392Z,90.2
2017-09-16T01:18:47.761Z,90.3
2017-09-16T01:19:49.131Z,90.0
2017-09-16T01:20:50.496Z,90.4
2017-09-16T01:21:51.865Z,90.1
2017-09-16T01:22:53.232Z,90.5
2017-09-16T01:23:54.601Z,90.5
2017-09-16T01:24:55.971Z,90.3
2017-09-16T01:25:57.339Z,90.1
2017-09-16T01:26:58.708Z,90.3
2017-09-16T01:28:41.060Z,89.7
2017-09-16T01:29:42.431Z,90.5
2017-09-16T01:30:43.799Z,90.4
2017-09-16T01:31:45.164Z,90.5
2017-09-16T01:32:46.539Z,90.4
2017-09-16T01:33:47.917Z,90.6
2017-09-16T01:34:49.274Z,90.4
2017-09-16T01:35:50.645Z,90.6
2017-09-16T01:36:52.010Z,90.6
2017-09-16T01:37:53.375Z,90.1
2017-09-16T01:38:54.743Z,90.6
2017-09-16T01:39:56.113Z,90.5
2017-09-16T01:40:57.482Z,90.6
2017-09-16T01:41:58.849Z,90.4
2017-09-16T01:43:00.219Z,90.3
2017-09-16T01:44:01.588Z,91.2
2017-09-16T01:45:02.954Z,91.1
2017-09-16T01:46:04.321Z,91.3
2017-09-16T01:47:05.690Z,91.3
2017-09-16T01:48:07.058Z,90.8
2017-09-16T01:49:08.426Z,90.8
2017-09-16T01:50:09.795Z,90.2
2017-09-16T01:51:11.163Z,91.2
2017-09-16T01:52:12.531Z,91.0
2017-09-16T01:53:13.900Z,91.0
2017-09-16T01:54:15.273Z,91.4
2017-09-16T01:55:16.639Z,90.8
2017-09-16T01:56:18.008Z,91.2
2017-09-16T01:57:19.374Z,91.4
2017-09-16T01:58:20.741Z,91.4
2017-09-16T01:59:22.110Z,91.2
2017-09-16T02:00:23.479Z,91.2
2017-09-16T02:01:24.846Z,91.1
2017-09-16T02:02:26.213Z,90.4
2017-09-16T02:03:27.581Z,90.6
2017-09-16T02:04:28.951Z,90.3
2017-09-16T02:05:30.321Z,90.5
2017-09-16T02:06:31.687Z,90.9
2017-09-16T02:07:33.059Z,91.0
2017-09-16T02:08:34.426Z,91.0
2017-09-16T02:09:35.795Z,91.1
2017-09-16T02:10:37.168Z,91.2
2017-09-16T02:11:38.548Z,91.0
2017-09-16T02:12:39.917Z,91.3
2017-09-16T02:13:41.282Z,91.0
2017-09-16T02:14:42.650Z,91.3
2017-09-16T02:15:44.019Z,91.2
2017-09-16T02:16:45.386Z,91.1
2017-09-16T02:17:46.755Z,90.3
2017-09-16T02:18:48.124Z,90.2
2017-09-16T02:19:49.492Z,90.3
2017-09-16T02:20:50.858Z,91.2
2017-09-16T02:21:52.225Z,91.2
2017-09-16T02:22:53.593Z,91.5
2017-09-16T02:23:54.963Z,91.0
2017-09-16T02:24:56.330Z,91.4
2017-09-16T02:25:57.697Z,91.2
2017-09-16T02:26:59.066Z,91.2
2017-09-16T02:28:00.432Z,91.0
2017-09-16T02:29:01.812Z,91.3
2017-09-16T02:30:03.175Z,91.7
2017-09-16T02:31:04.543Z,92.2
2017-09-16T02:32:05.911Z,91.6
2017-09-16T02:33:07.277Z,91.3
2017-09-16T02:34:08.646Z,91.5
2017-09-16T02:35:10.018Z,91.2
2017-09-16T02:36:11.384Z,91.6
2017-09-16T02:37:12.752Z,91.6
2017-09-16T02:38:14.121Z,91.2
2017-09-16T02:39:15.492Z,91.7
2017-09-16T02:40:16.858Z,91.6
2017-09-16T02:41:18.255Z,91.6
2017-09-16T02:42:19.595Z,92.2
2017-09-16T02:43:20.961Z,91.8
2017-09-16T02:45:03.326Z,91.6
2017-09-16T02:46:04.695Z,92.2
2017-09-16T02:47:06.062Z,91.7
2017-09-16T02:48:07.430Z,92.0
2017-09-16T02:49:08.799Z,91.9
2017-09-16T02:50:10.164Z,92.1
2017-09-16T02:51:11.535Z,92.1
2017-09-16T02:52:12.906Z,92.5
2017-09-16T02:53:14.270Z,92.0
2017-09-16T02:54:15.637Z,92.6
2017-09-16T02:55:17.003Z,92.3
2017-09-16T02:56:18.397Z,92.3
2017-09-16T02:57:19.740Z,92.1
2017-09-16T02:58:21.109Z,92.1
2017-09-16T02:59:22.480Z,91.8
2017-09-16T03:00:23.849Z,92.2
2017-09-16T03:02:06.191Z,92.4
2017-09-16T03:03:07.557Z,92.2
2017-09-16T03:04:08.925Z,91.9
2017-09-16T03:05:10.290Z,92.2
2017-09-16T03:06:11.656Z,91.6
2017-09-16T03:07:13.044Z,91.7
2017-09-16T03:08:14.394Z,92.1
2017-09-16T03:09:15.768Z,92.2
2017-09-16T03:10:17.131Z,92.0
2017-09-16T03:11:18.500Z,91.9
2017-09-16T03:12:19.867Z,91.6
2017-09-16T03:13:21.233Z,92.0
2017-09-16T03:14:22.606Z,92.1
2017-09-16T03:15:23.971Z,91.8
2017-09-16T03:16:25.337Z,91.6
2017-09-16T03:18:07.685Z,91.8
2017-09-16T03:19:09.060Z,91.8
2017-09-16T03:20:10.428Z,91.8
2017-09-16T03:21:11.796Z,91.5
2017-09-16T03:22:13.182Z,91.7
2017-09-16T03:23:14.532Z,91.6
2017-09-16T03:24:15.898Z,91.6
2017-09-16T03:25:17.272Z,91.7
2017-09-16T03:26:18.632Z,91.9
2017-09-16T03:27:19.998Z,91.6
2017-09-16T03:28:21.368Z,91.7
2017-09-16T03:29:22.729Z,92.3
2017-09-16T03:30:24.106Z,91.4
2017-09-16T03:31:25.475Z,91.6
2017-09-16T03:32:26.845Z,91.7
2017-09-16T03:33:28.210Z,91.6
2017-09-16T03:34:29.581Z,91.9
2017-09-16T03:35:30.941Z,91.9
2017-09-16T03:36:32.309Z,91.9
2017-09-16T03:37:33.672Z,92.1
2017-09-16T03:38:35.050Z,91.5
2017-09-16T03:39:36.416Z,92.2
2017-09-16T03:40:37.782Z,91.9
2017-09-16T03:41:39.197Z,91.7
2017-09-16T03:42:40.525Z,91.8
2017-09-16T03:43:41.895Z,91.6
2017-09-16T03:44:43.263Z,92.1
2017-09-16T03:45:44.632Z,91.4
2017-09-16T03:46:45.998Z,91.9
2017-09-16T03:47:47.363Z,92.1
2017-09-16T03:48:48.742Z,92.3
2017-09-16T03:50:31.101Z,92.1
2017-09-16T03:51:32.466Z,92.9
2017-09-16T03:52:33.830Z,92.5
2017-09-16T03:53:35.199Z,92.5
2017-09-16T03:54:36.564Z,92.9
2017-09-16T03:55:37.931Z,93.2
2017-09-16T03:56:39.298Z,93.5
2017-09-16T03:57:40.668Z,93.6
2017-09-16T03:58:42.035Z,93.6
2017-09-16T03:59:43.423Z,93.5
2017-09-16T04:00:44.796Z,93.5
2017-09-16T04:01:46.161Z,93.7
2017-09-16T04:02:47.527Z,93.5
2017-09-16T04:03:48.893Z,93.3
2017-09-16T04:04:50.259Z,93.7
2017-09-16T04:05:51.631Z,93.3
2017-09-16T04:06:52.999Z,93.2
2017-09-16T04:07:54.365Z,93.6
2017-09-16T04:08:55.740Z,93.7
2017-09-16T04:09:57.105Z,93.2
2017-09-16T04:10:58.473Z,93.0
2017-09-16T04:11:59.849Z,92.7
2017-09-16T04:13:01.214Z,92.3
2017-09-16T04:14:02.581Z,92.4
2017-09-16T04:15:03.952Z,92.7
2017-09-16T04:16:05.315Z,92.9
2017-09-16T04:17:06.687Z,92.5
2017-09-16T04:18:08.055Z,92.6
2017-09-16T04:19:09.427Z,92.7
2017-09-16T04:20:10.795Z,92.6
2017-09-16T04:21:12.160Z,93.0
2017-09-16T04:22:13.517Z,92.6
2017-09-16T04:23:14.897Z,92.6
2017-09-16T04:24:16.268Z,92.6
2017-09-16T04:25:17.634Z,93.1
2017-09-16T04:26:19.004Z,92.9
2017-09-16T04:27:20.377Z,93.1
2017-09-16T04:28:21.735Z,93.4
2017-09-16T04:30:04.082Z,93.5
2017-09-16T04:31:05.445Z,93.7
2017-09-16T04:32:06.808Z,93.3
2017-09-16T04:33:08.175Z,93.1
2017-09-16T04:34:09.543Z,93.4
2017-09-16T04:35:10.911Z,93.0
2017-09-16T04:36:12.278Z,93.2
2017-09-16T04:37:13.646Z,93.3
2017-09-16T04:38:15.014Z,93.5
2017-09-16T04:39:16.380Z,93.1
2017-09-16T04:40:17.748Z,93.4
2017-09-16T04:41:19.115Z,92.9
2017-09-16T04:42:20.483Z,92.8
2017-09-16T04:43:21.855Z,92.8
2017-09-16T04:44:23.246Z,92.7
2017-09-16T04:46:05.588Z,92.6
2017-09-16T04:47:06.949Z,92.9
2017-09-16T04:48:08.319Z,92.5
2017-09-16T04:49:09.688Z,92.6
2017-09-16T04:50:11.052Z,92.4
2017-09-16T04:51:12.422Z,92.5
2017-09-16T04:52:13.801Z,92.6
2017-09-16T04:53:15.170Z,92.7
2017-09-16T04:54:16.537Z,92.4
2017-09-16T04:55:17.904Z,92.7
2017-09-16T04:56:19.271Z,92.4
2017-09-16T04:57:20.640Z,93.2
2017-09-16T04:58:22.009Z,92.9
2017-09-16T04:59:23.384Z,93.1
2017-09-16T05:00:24.760Z,92.9
2017-09-16T05:01:26.124Z,92.9
2017-09-16T05:02:27.493Z,93.0
2017-09-16T05:03:28.861Z,93.0
2017-09-16T05:04:30.228Z,92.9
2017-09-16T05:05:31.596Z,93.4
2017-09-16T05:06:32.971Z,93.5
2017-09-16T05:07:34.342Z,93.6
2017-09-16T05:08:35.711Z,93.5
2017-09-16T05:09:37.082Z,93.7
2017-09-16T05:10:38.448Z,93.7
2017-09-16T05:11:39.817Z,92.9
2017-09-16T05:12:41.189Z,93.0
2017-09-16T05:13:42.557Z,93.7
2017-09-16T05:14:43.932Z,92.7
2017-09-16T05:15:45.298Z,93.2
2017-09-16T05:16:46.674Z,93.1
2017-09-16T05:17:48.039Z,93.1
2017-09-16T05:18:49.407Z,92.7
2017-09-16T05:19:50.786Z,92.9
2017-09-16T05:20:52.151Z,92.4
2017-09-16T05:21:53.523Z,92.4
2017-09-16T05:22:54.895Z,92.3
2017-09-16T05:23:56.262Z,92.8
2017-09-16T05:24:57.637Z,92.0
2017-09-16T05:25:59.024Z,92.3
2017-09-16T05:27:00.392Z,91.9
2017-09-16T05:28:01.767Z,91.9
2017-09-16T05:29:03.137Z,91.4
2017-09-16T05:30:04.514Z,91.6
2017-09-16T05:31:05.886Z,91.4
2017-09-16T05:32:07.259Z,91.3
2017-09-16T05:33:49.601Z,91.6
2017-09-16T05:34:50.970Z,91.0
2017-09-16T05:35:52.334Z,90.8
2017-09-16T05:36:53.720Z,90.3
2017-09-16T05:37:55.096Z,89.5
2017-09-16T05:38:56.468Z,89.1
2017-09-16T05:39:57.843Z,88.3
2017-09-16T05:40:59.214Z,88.1
2017-09-16T05:42:00.584Z,87.3
2017-09-16T05:43:01.957Z,86.9
2017-09-16T05:44:03.328Z,86.4
2017-09-16T05:45:04.703Z,85.8
2017-09-16T05:46:06.073Z,85.8
2017-09-16T05:47:07.447Z,85.6
2017-09-16T05:48:08.822Z,85.1
2017-09-16T05:49:10.197Z,84.6
2017-09-16T05:50:11.573Z,84.4
2017-09-16T05:51:12.946Z,84.4
2017-09-16T05:52:14.318Z,83.9
2017-09-16T05:53:15.694Z,84.0
2017-09-16T05:54:17.068Z,83.4
2017-09-16T05:55:18.445Z,83.5
2017-09-16T05:56:19.816Z,83.3
2017-09-16T05:57:21.199Z,82.9
2017-09-16T05:58:22.561Z,82.7
2017-09-16T05:59:23.947Z,82.5
2017-09-16T06:00:25.319Z,82.3
2017-09-16T06:01:26.697Z,81.4
2017-09-16T06:02:28.072Z,81.3
2017-09-16T06:03:29.455Z,82.0
2017-09-16T06:04:30.830Z,81.4
2017-09-16T06:05:32.202Z,81.3
2017-09-16T06:06:33.581Z,81.2
2017-09-16T06:07:34.952Z,81.1
2017-09-16T06:08:36.329Z,80.8
2017-09-16T06:09:37.706Z,81.0
2017-09-16T06:10:39.082Z,80.4
2017-09-16T06:11:40.453Z,79.8
2017-09-16T06:12:41.828Z,79.4
2017-09-16T06:13:43.206Z,79.2
2017-09-16T06:14:44.581Z,78.7
2017-09-16T06:15:45.954Z,78.7
2017-09-16T06:16:47.333Z,78.2
2017-09-16T06:17:48.704Z,77.6
2017-09-16T06:18:50.075Z,77.7
2017-09-16T06:19:51.452Z,77.3
2017-09-16T06:20:52.830Z,76.8
2017-09-16T06:22:35.183Z,76.6
2017-09-16T06:23:36.558Z,76.4
2017-09-16T06:24:37.928Z,76.3
2017-09-16T06:25:39.304Z,76.2
2017-09-16T06:26:40.684Z,75.8
2017-09-16T06:27:42.059Z,75.7
2017-09-16T06:28:43.445Z,74.8
2017-09-16T06:29:44.821Z,74.8
2017-09-16T06:30:46.198Z,73.9
2017-09-16T06:31:47.575Z,74.0
2017-09-16T06:32:48.951Z,73.7
2017-09-16T06:33:50.323Z,73.3
2017-09-16T06:34:51.704Z,73.4
2017-09-16T06:35:53.078Z,73.7
2017-09-16T06:36:54.455Z,72.8
2017-09-16T06:37:55.831Z,72.8
2017-09-16T06:38:57.204Z,72.0
2017-09-16T06:39:58.579Z,72.2
2017-09-16T06:40:59.958Z,71.3
2017-09-16T06:42:01.336Z,71.4
2017-09-16T06:43:02.717Z,70.8
2017-09-16T06:44:04.090Z,70.7
2017-09-16T06:45:05.465Z,71.4
2017-09-16T06:46:06.842Z,70.9
2017-09-16T06:47:08.219Z,70.8
2017-09-16T06:48:09.612Z,71.0
2017-09-16T06:49:10.985Z,70.7
2017-09-16T06:50:12.364Z,71.8
2017-09-16T06:51:13.758Z,71.3
2017-09-16T06:52:15.121Z,70.7
2017-09-16T06:53:16.497Z,70.7
2017-09-16T06:54:17.881Z,70.9
2017-09-16T06:55:19.284Z,71.1
2017-09-16T06:56:20.661Z,70.2
2017-09-16T06:57:22.048Z,70.1
2017-09-16T06:58:23.423Z,69.2
2017-09-16T06:59:24.801Z,69.2
2017-09-16T07:00:26.197Z,68.9
2017-09-16T07:01:27.571Z,68.6
2017-09-16T07:02:28.954Z,68.3
2017-09-16T07:03:30.330Z,67.3
2017-09-16T07:04:31.713Z,67.5
2017-09-16T07:05:33.087Z,68.0
2017-09-16T07:06:34.573Z,67.6
2017-09-16T07:07:35.952Z,67.3
2017-09-16T07:08:37.349Z,66.3
2017-09-16T07:09:38.745Z,66.5
2017-09-16T07:10:40.123Z,66.1
2017-09-16T07:11:41.503Z,66.3
2017-09-16T07:12:42.887Z,66.0
2017-09-16T07:13:44.272Z,64.8
2017-09-16T07:14:45.651Z,64.4
2017-09-16T07:15:47.037Z,65.1
2017-09-16T07:16:48.557Z,64.6
2017-09-16T07:17:49.897Z,63.5
2017-09-16T07:18:51.277Z,64.5
2017-09-16T07:19:52.659Z,65.1
2017-09-16T07:20:54.043Z,64.7
2017-09-16T07:21:55.420Z,64.6
2017-09-16T07:22:56.808Z,64.0
2017-09-16T07:23:58.178Z,64.1
2017-09-16T07:24:59.573Z,64.4
2017-09-16T07:26:00.977Z,64.3
2017-09-16T07:27:02.370Z,63.3
2017-09-16T07:28:03.788Z,63.7
2017-09-16T07:29:05.174Z,63.0
2017-09-16T07:30:06.559Z,62.8
2017-09-16T07:31:07.937Z,63.2
2017-09-16T07:32:09.326Z,64.1
2017-09-16T07:33:10.714Z,63.6
2017-09-16T07:34:12.106Z,64.0
2017-09-16T07:35:13.532Z,64.0
2017-09-16T07:36:14.906Z,63.4
2017-09-16T07:37:16.284Z,63.1
2017-09-16T07:38:17.668Z,63.5
2017-09-16T07:39:19.050Z,62.9
2017-09-16T07:40:20.437Z,63.2
2017-09-16T07:41:21.820Z,62.8
2017-09-16T07:42:23.326Z,62.5
2017-09-16T07:43:24.705Z,62.6
2017-09-16T07:44:26.090Z,62.6
2017-09-16T07:45:27.472Z,62.4
2017-09-16T07:46:28.861Z,62.6
2017-09-16T07:47:30.246Z,62.2
2017-09-16T07:48:31.630Z,62.2
2017-09-16T07:49:33.013Z,62.5
2017-09-16T07:50:34.401Z,62.5
2017-09-16T07:51:35.791Z,62.8
2017-09-16T07:52:37.196Z,62.6
2017-09-16T07:53:38.588Z,61.6
2017-09-16T07:54:39.980Z,60.6
2017-09-16T07:55:41.364Z,60.7
2017-09-16T07:56:42.748Z,61.7
2017-09-16T07:57:44.155Z,60.2
2017-09-16T07:58:45.531Z,60.2
2017-09-16T07:59:46.925Z,60.3
2017-09-16T08:00:48.319Z,59.0
2017-09-16T08:01:49.703Z,59.3
2017-09-16T08:02:51.089Z,58.7
2017-09-16T08:03:52.473Z,57.8
2017-09-16T08:04:53.865Z,58.2
2017-09-16T08:05:55.258Z,55.9
2017-09-16T08:06:56.645Z,56.2
2017-09-16T08:07:58.027Z,57.4
2017-09-16T08:08:59.412Z,57.3
2017-09-16T08:10:00.804Z,58.2
2017-09-16T08:11:02.184Z,57.0
2017-09-16T08:12:03.589Z,57.4
2017-09-16T08:13:04.966Z,55.9
2017-09-16T08:14:06.360Z,55.6
2017-09-16T08:15:07.774Z,53.9
2017-09-16T08:16:09.130Z,54.1
2017-09-16T08:17:10.523Z,53.2
2017-09-16T08:18:11.905Z,53.8
2017-09-16T08:19:13.287Z,53.5
2017-09-16T08:20:14.689Z,53.7
2017-09-16T08:21:16.073Z,53.9
2017-09-16T08:22:17.458Z,53.1
2017-09-16T08:23:18.843Z,52.7
2017-09-16T08:24:20.229Z,52.5
2017-09-16T08:25:21.612Z,52.8
2017-09-16T08:26:22.995Z,54.0
2017-09-16T08:27:24.380Z,54.1
2017-09-16T08:28:25.762Z,52.3
2017-09-16T08:30:08.150Z,53.1
2017-09-16T08:31:09.532Z,52.4
2017-09-16T08:32:10.915Z,52.6
2017-09-16T08:33:12.298Z,53.2
2017-09-16T08:34:13.708Z,53.4
2017-09-16T08:35:15.095Z,52.7
2017-09-16T08:36:16.483Z,54.0
2017-09-16T08:37:17.869Z,55.3
2017-09-16T08:38:19.263Z,54.4
2017-09-16T08:39:20.649Z,53.4
2017-09-16T08:40:22.032Z,52.1
2017-09-16T08:41:23.417Z,53.3
2017-09-16T08:42:24.802Z,53.3
2017-09-16T08:43:26.185Z,52.2
2017-09-16T08:44:27.575Z,51.8
2017-09-16T08:45:28.961Z,51.8
2017-09-16T08:46:30.349Z,51.0
2017-09-16T08:47:31.731Z,51.6
2017-09-16T08:48:33.114Z,50.2
2017-09-16T08:49:34.499Z,50.2
2017-09-16T08:50:35.890Z,51.1
2017-09-16T08:51:37.269Z,51.8
2017-09-16T08:52:38.649Z,52.2
2017-09-16T08:53:40.051Z,52.9
2017-09-16T08:54:41.417Z,51.8
2017-09-16T08:55:42.808Z,52.4
2017-09-16T08:56:44.190Z,51.2
2017-09-16T08:57:45.575Z,52.2
2017-09-16T08:58:46.962Z,52.2
2017-09-16T08:59:48.344Z,52.6
2017-09-16T09:01:30.726Z,51.3
2017-09-16T09:02:32.107Z,50.1
2017-09-16T09:03:33.489Z,50.6
2017-09-16T09:04:34.872Z,51.3
2017-09-16T09:05:36.254Z,50.0
2017-09-16T09:06:37.633Z,51.0
2017-09-16T09:07:39.027Z,52.5
2017-09-16T09:08:40.411Z,49.5
2017-09-16T09:09:41.793Z,49.1
2017-09-16T09:10:43.178Z,48.7
2017-09-16T09:11:44.560Z,47.1
2017-09-16T09:12:45.944Z,47.1
2017-09-16T09:13:47.329Z,47.9
2017-09-16T09:14:48.713Z,48.2
2017-09-16T09:15:50.096Z,49.2
2017-09-16T09:16:51.479Z,49.5
2017-09-16T09:17:52.861Z,49.5
2017-09-16T09:18:54.252Z,49.5
2017-09-16T09:19:55.637Z,49.1
2017-09-16T09:20:57.023Z,49.1
2017-09-16T09:21:58.409Z,49.1
2017-09-16T09:22:59.797Z,49.3
2017-09-16T09:24:01.179Z,48.5
2017-09-16T09:25:02.563Z,47.6
2017-09-16T09:26:03.944Z,48.0
2017-09-16T09:27:05.339Z,48.5
2017-09-16T09:28:06.725Z,50.5
2017-09-16T09:29:08.109Z,48.3
2017-09-16T09:30:09.495Z,48.4
2017-09-16T09:31:10.880Z,48.5
2017-09-16T09:32:12.264Z,48.2
2017-09-16T09:33:13.650Z,48.0
2017-09-16T09:34:15.043Z,48.0
2017-09-16T09:35:16.432Z,46.9
2017-09-16T09:36:17.820Z,46.4
2017-09-16T09:37:19.212Z,46.2
2017-09-16T09:38:20.596Z,47.0
2017-09-16T09:39:22.002Z,44.4
2017-09-16T09:40:23.388Z,43.8
2017-09-16T09:41:24.777Z,43.5
2017-09-16T09:42:26.162Z,43.1
2017-09-16T09:43:27.553Z,44.2
2017-09-16T09:44:28.942Z,44.1
2017-09-16T09:45:30.327Z,41.6
2017-09-16T09:46:31.716Z,42.8
2017-09-16T09:47:33.102Z,42.6
2017-09-16T09:48:34.512Z,42.0
2017-09-16T09:50:16.894Z,41.0
2017-09-16T09:51:18.280Z,41.6
2017-09-16T09:52:19.675Z,41.2
2017-09-16T09:53:21.062Z,41.4
2017-09-16T09:54:22.452Z,41.1
2017-09-16T09:55:23.838Z,41.5
2017-09-16T09:56:25.238Z,40.1
2017-09-16T09:57:26.617Z,41.8
2017-09-16T09:58:28.015Z,40.3
2017-09-16T09:59:29.404Z,39.9
2017-09-16T10:00:30.791Z,40.2
2017-09-16T10:01:32.182Z,39.3
2017-09-16T10:02:33.571Z,38.7
2017-09-16T10:03:34.964Z,40.4
2017-09-16T10:04:36.353Z,40.1
2017-09-16T10:06:17.736Z,39.6
2017-09-16T10:07:19.124Z,39.6
2017-09-16T10:08:41.134Z,39.4
2017-09-16T10:09:42.523Z,38.2
2017-09-16T10:11:04.531Z,38.0
2017-09-16T10:12:05.922Z,38.5
2017-09-16T10:13:07.308Z,39.6
2017-09-16T10:14:08.701Z,40.0
2017-09-16T10:15:10.096Z,40.8
2017-09-16T10:16:11.486Z,40.1
2017-09-16T10:17:12.879Z,38.4
2017-09-16T10:18:14.294Z,38.4
2017-09-16T10:19:15.682Z,38.9
2017-09-16T10:20:17.066Z,38.1
2017-09-16T10:21:59.448Z,38.4
2017-09-16T10:23:00.838Z,37.9
2017-09-16T10:24:02.226Z,37.2
2017-09-16T10:25:03.615Z,37.9
2017-09-16T10:26:05.017Z,37.1
2017-09-16T10:27:06.412Z,36.3
2017-09-16T10:28:07.804Z,36.9
2017-09-16T10:29:09.196Z,37.9
2017-09-16T10:30:10.585Z,36.7
2017-09-16T10:31:11.972Z,37.8
2017-09-16T10:32:13.364Z,39.6
2017-09-16T10:33:14.756Z,39.5
2017-09-16T10:34:16.142Z,39.9
2017-09-16T10:35:17.534Z,39.6
2017-09-16T10:36:18.922Z,39.9
2017-09-16T10:37:20.314Z,39.2
2017-09-16T10:38:21.694Z,40.1
2017-09-16T10:39:23.083Z,40.9
2017-09-16T10:40:24.485Z,40.6
2017-09-16T10:41:25.859Z,40.7
2017-09-16T10:42:27.248Z,40.9
2017-09-16T10:43:28.659Z,39.1
2017-09-16T10:44:30.051Z,38.0
2017-09-16T10:45:31.435Z,39.6
2017-09-16T10:46:32.829Z,39.1
2017-09-16T10:47:34.266Z,38.6
2017-09-16T10:48:35.656Z,40.6
2017-09-16T10:49:37.068Z,41.3
2017-09-16T10:50:38.458Z,41.4
2017-09-16T10:51:39.851Z,41.7
2017-09-16T10:52:41.233Z,42.0
2017-09-16T10:54:22.617Z,42.6
2017-09-16T10:55:24.002Z,42.6
2017-09-16T10:56:46.998Z,42.2
2017-09-16T10:57:48.387Z,42.6
2017-09-16T10:58:49.773Z,43.3
2017-09-16T10:59:51.160Z,42.6
2017-09-16T11:00:52.546Z,41.6
2017-09-16T11:01:53.934Z,40.9
2017-09-16T11:02:55.327Z,40.9
2017-09-16T11:03:56.715Z,41.4
2017-09-16T11:04:58.099Z,41.4
2017-09-16T11:05:59.483Z,40.3
2017-09-16T11:07:00.874Z,42.4
2017-09-16T11:08:02.257Z,44.8
2017-09-16T11:09:03.646Z,43.2
2017-09-16T11:10:45.023Z,44.3
2017-09-16T11:11:46.408Z,44.1
2017-09-16T11:13:08.412Z,44.1
2017-09-16T11:14:09.800Z,45.1
2017-09-16T11:15:32.810Z,44.8
2017-09-16T11:16:34.184Z,45.6
2017-09-16T11:17:35.573Z,44.9
2017-09-16T11:18:36.959Z,42.9
2017-09-16T11:19:38.344Z,41.7
2017-09-16T11:20:39.733Z,40.8
2017-09-16T11:21:41.119Z,38.1
2017-09-16T11:22:42.507Z,39.0
2017-09-16T11:23:43.897Z,36.7
2017-09-16T11:24:45.336Z,37.8
2017-09-16T11:25:46.699Z,36.7
2017-09-16T11:26:48.113Z,37.8
2017-09-16T11:27:49.504Z,36.4
2017-09-16T11:28:50.900Z,37.5
2017-09-16T11:29:52.303Z,36.7
2017-09-16T11:30:53.683Z,35.4
2017-09-16T11:31:55.118Z,36.7
2017-09-16T11:32:56.511Z,35.0
2017-09-16T11:33:57.897Z,33.0
2017-09-16T11:34:59.294Z,33.4
2017-09-16T11:36:00.687Z,33.9
2017-09-16T11:37:02.079Z,33.6
2017-09-16T11:38:03.478Z,33.5
2017-09-16T11:39:04.876Z,32.8
2017-09-16T11:40:06.268Z,31.7
2017-09-16T11:41:07.667Z,33.2
2017-09-16T11:42:09.072Z,31.4
2017-09-16T11:43:10.479Z,31.0
2017-09-16T11:44:11.879Z,29.9
2017-09-16T11:45:13.270Z,28.8
2017-09-16T11:46:14.736Z,29.3
2017-09-16T11:47:16.270Z,28.6
2017-09-16T11:48:17.918Z,30.1
2017-09-16T11:49:19.698Z,31.1
2017-09-16T11:50:21.176Z,32.3
2017-09-16T11:51:22.592Z,30.6
2017-09-16T11:52:23.998Z,31.9
2017-09-16T11:53:25.391Z,30.5
2017-09-16T11:54:26.796Z,32.0
2017-09-16T11:55:28.212Z,31.9
2017-09-16T11:56:29.610Z,31.5
2017-09-16T11:57:31.006Z,30.8
2017-09-16T11:58:32.402Z,31.7
2017-09-16T11:59:33.802Z,32.8
2017-09-16T12:00:35.200Z,32.2
2017-09-16T12:01:36.596Z,32.8
2017-09-16T12:02:37.989Z,31.9
2017-09-16T12:03:39.383Z,32.3
2017-09-16T12:04:40.856Z,31.9
2017-09-16T12:05:42.248Z,33.6
2017-09-16T12:06:43.644Z,33.1
2017-09-16T12:07:45.041Z,32.7
2017-09-16T12:08:46.443Z,30.8
2017-09-16T12:09:47.841Z,29.9
2017-09-16T12:10:49.236Z,31.2
2017-09-16T12:11:50.635Z,31.2
2017-09-16T12:12:52.033Z,30.9
2017-09-16T12:13:53.426Z,31.4
2017-09-16T12:15:34.832Z,29.8
2017-09-16T12:16:36.224Z,28.5
2017-09-16T12:17:37.619Z,28.6
2017-09-16T12:18:39.008Z,30.0
2017-09-16T12:19:40.401Z,29.6
2017-09-16T12:20:41.882Z,30.8
2017-09-16T12:21:43.276Z,29.7
2017-09-16T12:22:44.666Z,29.8
2017-09-16T12:23:46.060Z,28.9
2017-09-16T12:24:47.473Z,28.0
2017-09-16T12:25:48.995Z,28.7
2017-09-16T12:26:50.370Z,28.7
2017-09-16T12:27:52.537Z,27.5
2017-09-16T12:28:53.943Z,28.4
2017-09-16T12:29:55.406Z,30.0
2017-09-16T12:31:36.803Z,29.1
2017-09-16T12:32:38.217Z,29.9
2017-09-16T12:33:39.616Z,30.5
2017-09-16T12:34:41.406Z,31.6
2017-09-16T12:35:42.763Z,32.3
2017-09-16T12:36:44.152Z,33.2
2017-09-16T12:37:45.565Z,32.6
2017-09-16T12:38:46.966Z,30.5
2017-09-16T12:39:48.355Z,31.0
2017-09-16T12:40:49.749Z,30.7
2017-09-16T12:41:51.142Z,30.9
2017-09-16T12:42:52.533Z,30.4
2017-09-16T12:43:53.923Z,28.7
2017-09-16T12:44:55.318Z,29.5
2017-09-16T12:45:56.714Z,29.9
2017-09-16T12:46:58.112Z,30.9
2017-09-16T12:47:59.498Z,30.0
2017-09-16T12:49:00.890Z,30.9
2017-09-16T12:50:02.285Z,32.0
2017-09-16T12:51:03.680Z,31.6
2017-09-16T12:52:05.129Z,30.7
2017-09-16T12:53:06.540Z,30.6
2017-09-16T12:54:07.929Z,30.2
2017-09-16T12:55:09.340Z,31.6
2017-09-16T12:56:10.876Z,31.3
2017-09-16T12:57:12.279Z,30.3
2017-09-16T12:58:13.668Z,30.9
2017-09-16T12:59:15.076Z,31.4
2017-09-16T13:00:16.699Z,30.2
2017-09-16T13:01:18.101Z,30.3
2017-09-16T13:02:19.508Z,28.1
2017-09-16T13:03:20.909Z,26.4
2017-09-16T13:04:22.310Z,29.0
2017-09-16T13:05:23.711Z,30.3
2017-09-16T13:06:25.118Z,31.9
2017-09-16T13:07:26.513Z,33.8
2017-09-16T13:08:27.925Z,34.4
2017-09-16T13:09:29.320Z,34.8
2017-09-16T13:10:30.812Z,36.3
2017-09-16T13:11:32.453Z,36.8
2017-09-16T13:12:33.851Z,35.4
2017-09-16T13:13:35.279Z,34.2
2017-09-16T13:14:36.673Z,34.8
2017-09-16T13:15:38.067Z,35.2
2017-09-16T13:16:39.462Z,33.1
2017-09-16T13:17:40.854Z,33.8
2017-09-16T13:18:42.262Z,34.2
2017-09-16T13:20:23.672Z,33.9
2017-09-16T13:21:25.105Z,34.3
2017-09-16T13:22:47.114Z,34.4
2017-09-16T13:23:48.531Z,34.0
2017-09-16T13:24:49.917Z,33.3
2017-09-16T13:25:51.345Z,34.1
2017-09-16T13:26:52.732Z,35.3
2017-09-16T13:27:54.135Z,36.3
2017-09-16T13:28:55.529Z,37.5
2017-09-16T13:29:56.953Z,37.5
2017-09-16T13:30:58.335Z,39.3
2017-09-16T13:31:59.766Z,39.0
2017-09-16T13:33:01.158Z,38.6
2017-09-16T13:34:02.544Z,40.0
2017-09-16T13:35:03.934Z,39.9
2017-09-16T13:36:05.347Z,40.5
2017-09-16T13:37:06.744Z,39.6
2017-09-16T13:38:08.145Z,40.3
2017-09-16T13:39:09.603Z,38.7
2017-09-16T13:40:10.989Z,38.8
2017-09-16T13:41:12.373Z,36.7
2017-09-16T13:42:13.772Z,38.1
2017-09-16T13:43:15.184Z,37.6
2017-09-16T13:44:16.573Z,36.5
2017-09-16T13:45:17.956Z,36.5
2017-09-16T13:46:19.345Z,37.8
2017-09-16T13:47:20.739Z,36.2
2017-09-16T13:48:22.133Z,35.0
2017-09-16T13:49:23.535Z,33.4
2017-09-16T13:50:24.955Z,34.9
2017-09-16T13:51:26.348Z,33.2
2017-09-16T13:52:27.750Z,32.7
2017-09-16T13:53:29.138Z,32.9